Coroata, Brazil
Current Conditions -  °F | °C
As of 6:00 AM on Friday 31 Oct 2014 (Local Time) from SBSL Reporting Station
Few Clouds Few Clouds  
Wind Chill: 79°   Ceiling: Unl
Heat Index: 81°   Visibility: 6mi
Dew Point: 68°   Wind: 15mph
Humidity: 69%   Direction: 70°ENE
Pressure: 29.83"   Gusts: NA
Location:  4.13°S, 44.12°W
Report Text: SBSL 310900Z 07013KT 9999 FEW017 26/20 Q1010
Loading
Personal Weather Stations






























Interactive Weather Map
Tropical Storm Tracking
New forecast layout! Learn more

10-Day Weather Forecast

Advertisements
Track Severe Weather on mobile